Time;durP1;ratioP1;P1;durP2;ratioP2;P2;SDS_P1;SDS_P2;PMS_P1;PMS_P2;Temp;Humidity;BMP_temperature;BMP_pressure;BME280_temperature;BME280_humidity;BME280_pressure;Samples;Min_cycle;Max_cycle;Signal;HPM_P1;HPM_P2
2021/10/16 00:00:21;;;;;;;17.27;9.43;;;7.10;99.90;;;;;;5033920;28;20172;-71
2021/10/16 00:02:47;;;;;;;16.27;9.47;;;7.10;99.90;;;;;;5034149;28;20481;-71
2021/10/16 00:05:13;;;;;;;23.40;10.80;;;7.10;99.90;;;;;;5034055;28;20197;-72
2021/10/16 00:07:38;;;;;;;36.63;16.40;;;7.10;99.90;;;;;;5033902;28;20421;-72
2021/10/16 00:10:04;;;;;;;26.70;15.03;;;7.10;99.90;;;;;;5033772;28;20251;-72
2021/10/16 00:12:30;;;;;;;22.77;11.80;;;7.10;99.90;;;;;;5033776;28;20260;-71
2021/10/16 00:14:56;;;;;;;27.13;11.63;;;7.10;99.90;;;;;;5034162;28;20489;-71
2021/10/16 00:17:21;;;;;;;26.43;12.37;;;7.10;99.90;;;;;;5033836;28;20252;-71
2021/10/16 00:19:47;;;;;;;20.87;12.50;;;7.10;99.90;;;;;;5033835;28;20161;-71
2021/10/16 00:22:13;;;;;;;20.13;10.73;;;7.10;99.90;;;;;;5033697;28;20669;-72
2021/10/16 00:24:38;;;;;;;16.43;9.27;;;7.10;99.90;;;;;;5033535;28;20645;-71
2021/10/16 00:27:04;;;;;;;25.50;10.40;;;7.10;99.90;;;;;;5033595;28;20536;-72
2021/10/16 00:29:30;;;;;;;25.77;11.03;;;7.10;99.90;;;;;;5033062;28;20165;-71
2021/10/16 00:31:56;;;;;;;23.43;9.23;;;7.10;99.90;;;;;;5033634;28;20757;-71
2021/10/16 00:34:22;;;;;;;24.30;12.10;;;7.10;99.90;;;;;;5033026;28;20172;-71
2021/10/16 00:36:48;;;;;;;18.67;10.13;;;7.10;99.90;;;;;;5033280;28;20410;-71
2021/10/16 00:39:13;;;;;;;16.50;9.40;;;7.00;99.90;;;;;;5033368;28;20177;-71
2021/10/16 00:41:39;;;;;;;16.53;8.57;;;7.00;99.90;;;;;;5033199;28;20299;-72
2021/10/16 00:46:53;;;;;;;33.70;16.87;;;7.00;99.90;;;;;;5069879;28;20508;-73
2021/10/16 00:49:19;;;;;;;34.27;15.07;;;6.90;99.90;;;;;;5069877;28;20417;-74
2021/10/16 00:51:46;;;;;;;33.60;15.90;;;6.90;99.90;;;;;;5069915;28;20379;-74
2021/10/16 00:54:12;;;;;;;19.00;11.10;;;6.90;99.90;;;;;;5069826;28;20397;-74
2021/10/16 00:56:42;;;;;;;14.10;8.77;;;6.90;99.90;;;;;;5069229;28;20418;-74
2021/10/16 00:59:09;;;;;;;19.03;9.40;;;6.90;99.90;;;;;;5067941;28;20424;-74
2021/10/16 01:01:36;;;;;;;10.03;7.07;;;6.90;99.90;;;;;;5049441;28;20407;-74
2021/10/16 01:04:02;;;;;;;12.00;6.13;;;6.90;99.90;;;;;;5066190;28;20433;-73
2021/10/16 01:06:29;;;;;;;10.90;5.80;;;6.90;99.90;;;;;;5069625;28;20468;-75
2021/10/16 01:08:56;;;;;;;14.77;6.40;;;6.90;99.90;;;;;;5069455;28;20430;-74
2021/10/16 01:11:54;;;;;;;13.27;7.60;;;6.90;99.90;;;;;;5069144;28;20390;-74
2021/10/16 01:14:20;;;;;;;11.93;5.60;;;6.90;99.90;;;;;;5069449;28;20401;-74
2021/10/16 01:16:50;;;;;;;11.03;6.07;;;6.90;99.90;;;;;;5062413;28;20411;-74
2021/10/16 01:19:18;;;;;;;9.63;5.90;;;6.80;99.90;;;;;;5049424;28;20391;-74
2021/10/16 01:21:46;;;;;;;10.03;5.93;;;6.80;99.90;;;;;;5065971;28;20426;-75
2021/10/16 01:24:14;;;;;;;7.77;5.37;;;6.80;99.90;;;;;;5049116;28;20414;-74
2021/10/16 01:26:41;;;;;;;18.53;7.00;;;6.80;99.90;;;;;;5049182;28;20450;-74
2021/10/16 01:29:09;;;;;;;17.73;8.07;;;6.80;99.90;;;;;;5049158;28;20731;-74
2021/10/16 01:31:37;;;;;;;16.90;9.10;;;6.80;99.90;;;;;;5049048;28;20426;-74
2021/10/16 01:34:03;;;;;;;14.93;7.80;;;6.70;99.90;;;;;;5049671;28;20939;-74
2021/10/16 01:36:49;;;;;;;17.93;8.07;;;6.70;99.90;;;;;;5062066;28;20502;-74
2021/10/16 01:39:16;;;;;;;11.93;6.90;;;6.70;99.90;;;;;;5056866;28;20562;-74
2021/10/16 01:41:42;;;;;;;26.20;14.70;;;6.70;99.90;;;;;;5068758;28;20394;-73
2021/10/16 01:44:08;;;;;;;28.10;14.43;;;6.60;99.90;;;;;;5068750;28;20401;-74
2021/10/16 01:46:35;;;;;;;34.13;17.43;;;6.60;99.90;;;;;;5053339;28;20454;-74
2021/10/16 01:49:11;;;;;;;27.53;15.50;;;6.60;99.90;;;;;;5048782;28;20387;-75
2021/10/16 01:51:37;;;;;;;22.70;12.57;;;6.60;99.90;;;;;;5049212;28;20407;-74
2021/10/16 01:54:03;;;;;;;27.33;12.47;;;6.60;99.90;;;;;;5048986;28;20418;-74
2021/10/16 01:56:29;;;;;;;20.20;10.77;;;6.50;99.90;;;;;;5044581;28;20176;-74
2021/10/16 01:58:55;;;;;;;27.27;11.80;;;6.50;99.90;;;;;;5035255;28;20395;-74
2021/10/16 02:01:20;;;;;;;18.40;10.43;;;6.50;99.90;;;;;;5035253;28;20418;-74
2021/10/16 02:03:46;;;;;;;20.57;10.40;;;6.40;99.90;;;;;;5044080;28;20230;-74
2021/10/16 02:06:11;;;;;;;22.30;10.03;;;6.40;99.90;;;;;;5035142;28;20558;-74
2021/10/16 02:08:38;;;;;;;17.23;9.00;;;6.40;99.90;;;;;;5035966;28;20191;-74
2021/10/16 02:11:04;;;;;;;15.77;8.63;;;6.40;99.90;;;;;;5044571;28;20204;-74
2021/10/16 02:13:30;;;;;;;19.00;7.47;;;6.40;99.90;;;;;;5054641;28;20394;-74
2021/10/16 02:15:55;;;;;;;10.97;6.50;;;6.40;99.90;;;;;;5055027;28;20478;-74
2021/10/16 02:18:21;;;;;;;12.33;5.90;;;6.40;99.90;;;;;;5054677;28;20213;-74
2021/10/16 02:20:47;;;;;;;14.80;6.33;;;6.40;99.90;;;;;;5054925;28;20160;-74
2021/10/16 02:23:12;;;;;;;13.10;6.70;;;6.40;99.90;;;;;;5054862;28;20156;-74
2021/10/16 02:25:38;;;;;;;10.87;6.73;;;6.40;99.90;;;;;;5040735;28;20197;-74
2021/10/16 02:28:04;;;;;;;14.30;8.10;;;6.40;99.90;;;;;;5034819;28;20240;-74
2021/10/16 02:30:29;;;;;;;17.70;9.83;;;6.30;99.90;;;;;;5042593;28;20177;-74
2021/10/16 02:32:55;;;;;;;12.70;6.80;;;6.30;99.90;;;;;;5054741;28;20484;-74
2021/10/16 02:35:20;;;;;;;13.77;6.20;;;6.30;99.90;;;;;;5054742;28;20542;-74
2021/10/16 02:37:46;;;;;;;14.33;6.23;;;6.30;99.90;;;;;;5038718;28;20195;-74
2021/10/16 02:40:11;;;;;;;14.00;7.07;;;6.30;99.90;;;;;;5051064;28;20658;-73
2021/10/16 02:42:39;;;;;;;15.60;9.30;;;6.30;99.90;;;;;;5040682;28;20263;-73
2021/10/16 02:45:05;;;;;;;11.50;7.30;;;6.20;99.90;;;;;;5035188;28;20250;-74
2021/10/16 02:47:31;;;;;;;13.63;8.47;;;6.20;99.90;;;;;;5034002;28;20419;-74
2021/10/16 02:49:58;;;;;;;24.00;8.93;;;6.20;99.90;;;;;;5034875;28;20145;-78
2021/10/16 02:52:25;;;;;;;16.80;8.53;;;6.20;99.90;;;;;;5034495;28;20481;-78
2021/10/16 02:54:50;;;;;;;20.20;12.00;;;6.20;99.90;;;;;;5034415;28;20894;-78
2021/10/16 02:57:16;;;;;;;24.30;12.70;;;6.20;99.90;;;;;;5034204;28;20486;-78
2021/10/16 02:59:41;;;;;;;29.60;15.83;;;6.20;99.90;;;;;;5034767;28;20172;-78
2021/10/16 03:02:07;;;;;;;33.33;15.27;;;6.10;99.90;;;;;;5038313;28;20179;-78
2021/10/16 03:04:32;;;;;;;22.97;13.37;;;6.10;99.90;;;;;;5049048;28;20191;-78
2021/10/16 03:06:58;;;;;;;17.80;10.50;;;6.10;99.90;;;;;;5053878;28;20198;-77
2021/10/16 03:09:24;;;;;;;17.00;8.40;;;6.10;99.90;;;;;;5053061;28;20240;-78
2021/10/16 03:11:49;;;;;;;16.97;8.77;;;6.10;99.90;;;;;;5053937;28;20160;-78
2021/10/16 03:14:15;;;;;;;17.20;9.33;;;6.10;99.90;;;;;;5053955;28;20171;-78
2021/10/16 03:16:40;;;;;;;17.30;8.80;;;6.10;99.90;;;;;;5039189;28;20180;-78
2021/10/16 03:19:06;;;;;;;12.27;7.50;;;6.10;99.90;;;;;;5033814;28;20226;-78
2021/10/16 03:21:31;;;;;;;18.83;8.47;;;6.10;99.90;;;;;;5048747;28;20222;-78
2021/10/16 03:23:57;;;;;;;12.20;7.00;;;6.10;99.90;;;;;;5053527;28;20211;-78
2021/10/16 03:26:22;;;;;;;9.87;5.40;;;6.00;99.90;;;;;;5053399;28;20203;-78
2021/10/16 03:28:48;;;;;;;8.27;5.30;;;6.00;99.90;;;;;;5053735;28;20145;-78
2021/10/16 03:31:14;;;;;;;10.70;4.90;;;6.00;99.90;;;;;;5053223;28;20203;-78
2021/10/16 03:33:39;;;;;;;7.20;5.00;;;6.00;99.90;;;;;;5039143;28;20181;-78
2021/10/16 03:36:05;;;;;;;8.20;4.00;;;6.00;99.90;;;;;;5048400;28;20225;-78
2021/10/16 03:38:30;;;;;;;6.37;4.20;;;5.90;99.90;;;;;;5042357;28;20209;-78
2021/10/16 03:40:56;;;;;;;6.37;3.93;;;6.00;99.90;;;;;;5033469;28;20172;-78
2021/10/16 03:43:21;;;;;;;8.63;4.90;;;5.90;99.90;;;;;;5033408;28;20157;-78
2021/10/16 03:45:47;;;;;;;8.37;4.90;;;5.90;99.90;;;;;;5037672;28;20656;-78
2021/10/16 03:48:12;;;;;;;9.10;5.60;;;5.90;99.90;;;;;;5053411;28;20254;-78
2021/10/16 03:50:38;;;;;;;11.17;5.30;;;5.90;99.90;;;;;;5038799;28;20663;-78
2021/10/16 03:53:03;;;;;;;17.83;7.00;;;5.90;99.90;;;;;;5033052;28;20157;-78
2021/10/16 03:55:29;;;;;;;9.40;5.77;;;5.90;99.90;;;;;;5033041;28;20248;-78
2021/10/16 03:57:54;;;;;;;11.33;5.77;;;5.80;99.90;;;;;;5033090;28;20160;-77
2021/10/16 04:00:20;;;;;;;7.10;5.07;;;5.90;99.90;;;;;;5032934;28;20173;-77
2021/10/16 04:02:49;;;;;;;8.23;5.87;;;5.90;99.90;;;;;;5044235;28;20588;-78
2021/10/16 04:05:15;;;;;;;10.40;5.40;;;5.90;99.90;;;;;;5032983;28;20176;-78
2021/10/16 04:07:40;;;;;;;7.77;5.43;;;5.90;99.90;;;;;;5033681;28;20415;-77
2021/10/16 04:10:08;;;;;;;9.40;5.50;;;5.80;99.90;;;;;;5032595;28;20226;-77
2021/10/16 04:12:34;;;;;;;8.63;5.10;;;5.90;99.90;;;;;;5052460;28;20160;-78
2021/10/16 04:14:59;;;;;;;9.47;5.07;;;5.80;99.90;;;;;;5052782;28;20452;-78
2021/10/16 04:17:25;;;;;;;5.77;4.50;;;5.80;99.90;;;;;;5052671;28;20171;-78
2021/10/16 04:19:50;;;;;;;11.50;5.10;;;5.80;99.90;;;;;;5053108;28;20229;-78
2021/10/16 04:22:16;;;;;;;6.67;4.83;;;5.80;99.90;;;;;;5052903;28;20644;-78
2021/10/16 04:24:41;;;;;;;9.43;5.00;;;5.80;99.90;;;;;;5037944;28;20194;-78
2021/10/16 04:27:07;;;;;;;9.43;4.97;;;5.70;99.90;;;;;;5032686;28;20199;-78
2021/10/16 04:29:32;;;;;;;12.10;4.67;;;5.70;99.90;;;;;;5032611;28;20179;-77
2021/10/16 04:31:59;;;;;;;8.03;4.40;;;5.70;99.90;;;;;;5052526;28;20521;-77
2021/10/16 04:34:24;;;;;;;8.47;4.30;;;5.60;99.90;;;;;;5051992;28;20172;-77
2021/10/16 04:36:50;;;;;;;7.77;3.97;;;5.60;99.90;;;;;;5044298;28;20408;-78
2021/10/16 04:39:16;;;;;;;6.33;4.00;;;5.60;99.90;;;;;;5032519;28;20176;-78
2021/10/16 04:41:41;;;;;;;6.07;4.20;;;5.60;99.90;;;;;;5046851;28;20214;-78
2021/10/16 04:44:07;;;;;;;8.70;4.33;;;5.60;99.90;;;;;;5052473;28;20159;-78
2021/10/16 04:46:33;;;;;;;5.10;4.00;;;5.60;99.90;;;;;;5051808;28;20222;-78
2021/10/16 04:48:58;;;;;;;8.40;5.00;;;5.50;99.90;;;;;;5052236;28;20186;-78
2021/10/16 04:51:24;;;;;;;10.23;4.37;;;5.50;99.90;;;;;;5052410;28;20176;-78
2021/10/16 04:53:50;;;;;;;9.43;4.60;;;5.50;99.90;;;;;;5052341;28;20613;-78
2021/10/16 04:56:15;;;;;;;5.63;3.97;;;5.50;99.90;;;;;;5038983;28;20651;-78
2021/10/16 04:58:41;;;;;;;6.30;3.73;;;5.50;99.90;;;;;;5046162;28;20642;-78
2021/10/16 05:01:06;;;;;;;6.83;4.73;;;5.50;99.90;;;;;;5042992;28;20452;-78
2021/10/16 05:03:32;;;;;;;7.43;4.93;;;5.50;99.90;;;;;;5045575;28;20630;-77
2021/10/16 05:05:58;;;;;;;10.10;4.93;;;5.50;99.90;;;;;;5032461;28;20701;-78
2021/10/16 05:08:23;;;;;;;6.97;4.40;;;5.40;99.90;;;;;;5032951;28;20238;-78
2021/10/16 05:10:49;;;;;;;7.37;4.27;;;5.40;99.90;;;;;;5032406;28;20211;-78
2021/10/16 05:13:15;;;;;;;8.97;4.93;;;5.40;99.90;;;;;;5032275;28;20604;-78
2021/10/16 05:15:40;;;;;;;6.87;4.70;;;5.40;99.90;;;;;;5032870;28;20411;-78
2021/10/16 05:18:06;;;;;;;9.40;4.73;;;5.40;99.90;;;;;;5032511;28;20528;-78
2021/10/16 05:20:31;;;;;;;7.60;4.90;;;5.40;99.90;;;;;;5038534;28;20599;-78
2021/10/16 05:22:57;;;;;;;8.47;4.30;;;5.40;99.90;;;;;;5052375;28;20243;-77
2021/10/16 05:25:23;;;;;;;6.93;4.70;;;5.40;99.90;;;;;;5052102;28;20223;-77
2021/10/16 05:27:49;;;;;;;6.23;4.17;;;5.40;99.90;;;;;;5052406;28;20195;-77
2021/10/16 05:30:16;;;;;;;5.70;4.17;;;5.40;99.90;;;;;;5052057;28;20158;-77
2021/10/16 05:32:41;;;;;;;9.03;5.37;;;5.30;99.90;;;;;;5039986;28;20985;-77
2021/10/16 05:35:07;;;;;;;8.47;4.43;;;5.30;99.90;;;;;;5044792;28;20410;-77
2021/10/16 05:37:33;;;;;;;6.70;4.17;;;5.30;99.90;;;;;;5041579;28;20172;-77
2021/10/16 05:39:58;;;;;;;7.60;4.80;;;5.30;99.90;;;;;;5035663;28;20418;-77
2021/10/16 05:42:24;;;;;;;4.77;3.37;;;5.30;99.90;;;;;;5035847;28;20195;-77
2021/10/16 05:44:49;;;;;;;11.30;4.47;;;5.30;99.90;;;;;;5035368;28;20319;-77
2021/10/16 05:47:16;;;;;;;7.73;4.27;;;5.40;99.90;;;;;;5035796;28;20161;-77
2021/10/16 05:49:41;;;;;;;8.40;3.73;;;5.40;99.90;;;;;;5036114;28;20168;-77
2021/10/16 05:52:07;;;;;;;5.20;4.57;;;5.40;99.90;;;;;;5035658;28;20457;-77
2021/10/16 05:54:32;;;;;;;6.53;3.83;;;5.40;99.90;;;;;;5035706;28;20504;-77
2021/10/16 05:56:58;;;;;;;7.23;5.37;;;5.40;99.90;;;;;;5035714;28;20171;-78
2021/10/16 05:59:24;;;;;;;10.53;5.00;;;5.30;99.90;;;;;;5035446;28;20700;-78
2021/10/16 06:01:49;;;;;;;8.87;5.13;;;5.40;99.90;;;;;;5051681;28;20454;-78
2021/10/16 06:04:15;;;;;;;10.27;4.93;;;5.40;99.90;;;;;;5042687;28;20249;-77
2021/10/16 06:06:40;;;;;;;8.80;6.03;;;5.40;99.90;;;;;;5035814;28;20661;-78
2021/10/16 06:09:06;;;;;;;7.90;5.20;;;5.40;99.90;;;;;;5035569;28;20168;-77
2021/10/16 06:11:32;;;;;;;9.20;4.80;;;5.40;99.90;;;;;;5049221;28;20172;-77
2021/10/16 06:13:58;;;;;;;9.97;4.53;;;5.40;99.90;;;;;;5054676;28;20199;-77
2021/10/16 06:16:24;;;;;;;5.60;4.80;;;5.40;99.90;;;;;;5055032;28;20205;-77
2021/10/16 06:18:49;;;;;;;6.70;4.10;;;5.40;99.90;;;;;;5055415;28;20390;-78
2021/10/16 06:21:15;;;;;;;7.00;5.17;;;5.40;99.90;;;;;;5055335;28;20172;-77
2021/10/16 06:23:41;;;;;;;6.07;5.40;;;5.30;99.90;;;;;;5040588;28;20181;-78
2021/10/16 06:26:06;;;;;;;6.97;5.00;;;5.30;99.90;;;;;;5034557;28;20188;-77
2021/10/16 06:28:32;;;;;;;6.37;5.13;;;5.30;99.90;;;;;;5035055;28;20195;-77
2021/10/16 06:30:58;;;;;;;11.20;5.27;;;5.30;99.90;;;;;;5047085;28;20525;-78
2021/10/16 06:33:25;;;;;;;7.43;4.90;;;5.30;99.90;;;;;;5054842;28;20676;-77
2021/10/16 06:35:51;;;;;;;8.80;4.80;;;5.40;99.90;;;;;;5054555;28;20659;-77
2021/10/16 06:38:16;;;;;;;5.60;4.30;;;5.40;99.90;;;;;;5034739;28;20909;-78
2021/10/16 06:40:42;;;;;;;7.67;4.60;;;5.40;99.90;;;;;;5048775;28;20533;-77
2021/10/16 06:43:08;;;;;;;6.40;4.67;;;5.40;99.90;;;;;;5054716;28;20166;-77
2021/10/16 06:45:33;;;;;;;10.97;4.97;;;5.40;99.90;;;;;;5054322;28;20212;-77
2021/10/16 06:47:59;;;;;;;8.00;4.97;;;5.40;99.90;;;;;;5054497;28;20171;-77
2021/10/16 06:50:24;;;;;;;9.23;5.67;;;5.40;99.90;;;;;;5054372;28;20156;-77
2021/10/16 06:52:50;;;;;;;7.80;5.80;;;5.50;99.90;;;;;;5054304;28;20190;-77
2021/10/16 06:55:15;;;;;;;17.27;5.63;;;5.50;99.90;;;;;;5048928;28;20222;-77
2021/10/16 06:57:41;;;;;;;8.10;4.53;;;5.50;99.90;;;;;;5048550;28;20245;-77
2021/10/16 07:00:07;;;;;;;6.63;5.40;;;5.60;99.90;;;;;;5051686;28;20223;-77
2021/10/16 07:02:33;;;;;;;11.87;5.77;;;5.60;99.90;;;;;;5034397;28;20161;-77
2021/10/16 07:04:58;;;;;;;7.83;5.00;;;5.70;99.90;;;;;;5052530;28;20450;-77
2021/10/16 07:07:24;;;;;;;12.43;6.03;;;5.70;99.90;;;;;;5054028;28;20474;-77
2021/10/16 07:09:50;;;;;;;5.77;4.10;;;5.70;99.90;;;;;;5054501;28;20160;-77
2021/10/16 07:12:15;;;;;;;6.90;4.80;;;5.80;99.90;;;;;;5054221;28;20243;-77
2021/10/16 07:14:41;;;;;;;10.40;4.97;;;5.80;99.90;;;;;;5039201;28;20171;-77
2021/10/16 07:17:06;;;;;;;9.17;4.90;;;5.80;99.90;;;;;;5034039;28;20243;-77
2021/10/16 07:19:32;;;;;;;9.17;5.23;;;5.80;99.90;;;;;;5033937;28;20605;-77
2021/10/16 07:21:59;;;;;;;8.53;4.93;;;5.90;99.90;;;;;;5034642;28;20199;-77
2021/10/16 07:24:25;;;;;;;8.60;5.17;;;5.90;99.90;;;;;;5053764;28;20998;-77
2021/10/16 07:26:51;;;;;;;8.03;4.63;;;5.80;99.90;;;;;;5053613;28;20525;-77
2021/10/16 07:29:16;;;;;;;8.63;4.87;;;5.90;99.90;;;;;;5053885;28;20190;-77
2021/10/16 07:31:42;;;;;;;7.80;4.73;;;6.00;99.90;;;;;;5038837;28;20192;-77
2021/10/16 07:34:07;;;;;;;7.50;5.33;;;6.00;99.90;;;;;;5034633;28;20169;-77
2021/10/16 07:36:36;;;;;;;7.77;5.17;;;6.10;99.90;;;;;;5048098;28;20195;-77
2021/10/16 07:39:05;;;;;;;9.40;5.20;;;6.20;99.90;;;;;;5033452;28;20544;-78
2021/10/16 07:41:30;;;;;;;10.33;5.97;;;6.20;99.90;;;;;;5033632;28;20392;-77
2021/10/16 07:43:56;;;;;;;8.37;5.20;;;6.30;99.90;;;;;;5033592;28;20454;-77
2021/10/16 07:46:21;;;;;;;7.80;5.60;;;6.30;99.90;;;;;;5033305;28;20197;-77
2021/10/16 07:48:48;;;;;;;7.63;5.57;;;6.40;99.90;;;;;;5048487;28;20655;-78
2021/10/16 07:51:14;;;;;;;9.77;5.20;;;6.40;99.90;;;;;;5049517;28;20163;-77
2021/10/16 07:53:39;;;;;;;6.57;5.03;;;6.50;99.90;;;;;;5033214;28;20776;-77
2021/10/16 07:56:05;;;;;;;10.13;5.77;;;6.50;99.90;;;;;;5032502;28;20392;-77
2021/10/16 07:58:31;;;;;;;8.87;5.07;;;6.50;99.90;;;;;;5034237;28;20160;-77
2021/10/16 08:00:56;;;;;;;7.63;5.40;;;6.60;99.90;;;;;;5043696;28;20169;-78
2021/10/16 08:03:22;;;;;;;8.10;5.73;;;6.60;99.90;;;;;;5038675;28;20168;-77
2021/10/16 08:05:47;;;;;;;7.17;5.57;;;6.70;99.90;;;;;;5037381;28;20192;-77
2021/10/16 08:08:13;;;;;;;15.50;5.60;;;6.70;99.90;;;;;;5033201;28;20153;-77
2021/10/16 08:10:40;;;;;;;8.67;5.70;;;6.80;99.90;;;;;;5033090;28;20161;-77
2021/10/16 08:13:06;;;;;;;10.67;7.17;;;6.80;99.90;;;;;;5032843;28;20288;-77
2021/10/16 08:15:32;;;;;;;9.13;5.47;;;6.90;99.90;;;;;;5033172;28;20482;-77
2021/10/16 08:17:57;;;;;;;12.37;5.80;;;7.00;99.90;;;;;;5032862;28;20161;-77
2021/10/16 08:20:23;;;;;;;10.70;5.97;;;7.00;99.90;;;;;;5032880;28;20530;-77
2021/10/16 08:22:49;;;;;;;10.90;5.90;;;7.10;99.90;;;;;;5048677;28;20259;-77
2021/10/16 08:25:14;;;;;;;7.70;6.67;;;7.10;99.90;;;;;;5052664;28;20188;-77
2021/10/16 08:27:41;;;;;;;9.30;6.50;;;7.10;99.90;;;;;;5052620;28;20438;-78
2021/10/16 08:30:09;;;;;;;13.47;6.33;;;7.20;99.90;;;;;;5047411;28;20169;-77
2021/10/16 08:32:35;;;;;;;13.80;6.77;;;7.30;99.90;;;;;;5032961;28;20433;-77
2021/10/16 08:35:01;;;;;;;12.23;6.50;;;7.40;99.90;;;;;;5040324;28;20422;-77
2021/10/16 08:37:26;;;;;;;11.67;6.43;;;7.50;99.90;;;;;;5039324;28;20473;-77
2021/10/16 08:39:52;;;;;;;12.10;6.40;;;7.60;99.90;;;;;;5033038;28;20713;-77
2021/10/16 08:42:17;;;;;;;10.63;6.40;;;7.70;99.90;;;;;;5032745;28;20577;-77
2021/10/16 08:44:43;;;;;;;8.70;5.50;;;7.70;99.90;;;;;;5032444;28;20184;-77
2021/10/16 08:47:10;;;;;;;10.57;5.50;;;7.80;99.90;;;;;;5032491;28;20200;-77
2021/10/16 08:49:38;;;;;;;10.67;6.07;;;7.80;99.90;;;;;;5032585;28;20175;-77
2021/10/16 08:52:04;;;;;;;8.90;5.70;;;7.80;99.90;;;;;;5032715;28;20423;-77
2021/10/16 08:54:29;;;;;;;9.43;5.73;;;7.80;99.90;;;;;;5032634;28;20447;-77
2021/10/16 08:56:55;;;;;;;10.80;6.40;;;7.80;99.90;;;;;;5033158;28;20415;-77
2021/10/16 08:59:21;;;;;;;9.07;6.33;;;7.90;99.90;;;;;;5048387;28;20210;-77
2021/10/16 09:01:55;;;;;;;7.97;5.67;;;7.90;99.90;;;;;;5035837;28;20466;-77
2021/10/16 09:04:21;;;;;;;6.50;4.60;;;8.00;99.90;;;;;;5038520;28;20188;-77
2021/10/16 09:06:47;;;;;;;8.37;5.27;;;8.00;99.90;;;;;;5033228;28;20479;-78
2021/10/16 09:09:13;;;;;;;12.10;6.00;;;8.10;99.90;;;;;;5036311;28;20403;-78
2021/10/16 09:11:44;;;;;;;12.37;5.97;;;8.20;99.90;;;;;;5036545;28;20164;-77
2021/10/16 09:16:57;;;;;;;9.93;5.83;;;8.40;99.90;;;;;;5130498;27;20593;-75
2021/10/16 09:22:07;;;;;;;5.83;4.80;;;8.70;99.90;;;;;;5130404;27;20537;-75
2021/10/16 09:27:14;;;;;;;13.63;6.13;;;8.90;99.90;;;;;;5130473;27;20538;-75
2021/10/16 09:29:44;;;;;;;12.73;5.03;;;8.90;99.90;;;;;;5124374;28;20783;-75
2021/10/16 09:32:15;;;;;;;8.10;5.63;;;8.90;99.90;;;;;;5110086;28;20483;-75
2021/10/16 09:34:43;;;;;;;11.50;5.77;;;9.00;99.90;;;;;;5115186;28;20403;-75
2021/10/16 09:45:10;;;;;;;12.57;9.07;;;9.10;99.90;;;;;;5109857;27;20578;-74
2021/10/16 09:47:36;;;;;;;10.27;8.67;;;9.30;99.90;;;;;;5095562;28;20408;-73
2021/10/16 09:50:07;;;;;;;10.40;7.30;;;9.40;99.90;;;;;;5089401;28;20930;-74
2021/10/16 09:52:36;;;;;;;16.40;9.00;;;9.50;99.90;;;;;;5089468;28;20162;-74
2021/10/16 09:55:03;;;;;;;15.63;10.60;;;9.60;99.90;;;;;;5089524;28;20381;-74
2021/10/16 09:57:29;;;;;;;14.03;10.83;;;9.70;99.90;;;;;;5089193;28;20386;-73
2021/10/16 09:59:58;;;;;;;18.30;10.40;;;9.80;99.90;;;;;;5089380;28;20814;-74
2021/10/16 10:02:27;;;;;;;12.73;6.60;;;9.90;99.90;;;;;;5094482;28;20400;-73
2021/10/16 10:04:55;;;;;;;12.30;6.80;;;10.00;99.90;;;;;;5092896;28;20987;-74
2021/10/16 10:07:20;;;;;;;10.10;6.07;;;10.00;99.90;;;;;;5089124;28;20476;-74
2021/10/16 10:09:46;;;;;;;11.70;6.27;;;10.00;99.90;;;;;;5089036;28;20476;-74
2021/10/16 10:12:15;;;;;;;14.27;6.10;;;10.10;99.90;;;;;;5093680;28;20716;-74
2021/10/16 10:14:42;;;;;;;11.17;5.90;;;10.10;99.90;;;;;;5109438;28;20531;-74
2021/10/16 10:17:10;;;;;;;10.57;5.80;;;10.10;99.90;;;;;;5109592;28;20461;-74
2021/10/16 10:19:39;;;;;;;10.17;6.83;;;10.10;99.90;;;;;;5109194;28;20770;-74
2021/10/16 10:22:22;;;;;;;10.73;5.63;;;10.10;99.90;;;;;;5091106;28;20408;-74
2021/10/16 10:24:50;;;;;;;12.80;6.63;;;10.20;99.90;;;;;;5088612;28;20462;-74
2021/10/16 10:27:20;;;;;;;21.03;8.10;;;10.20;99.90;;;;;;5088794;28;20815;-73
2021/10/16 10:29:49;;;;;;;11.97;6.63;;;10.20;99.90;;;;;;5091533;28;20427;-74
2021/10/16 10:32:25;;;;;;;12.93;6.70;;;10.30;99.90;;;;;;5108564;28;20418;-73
2021/10/16 10:34:54;;;;;;;6.53;5.43;;;10.30;99.90;;;;;;5095311;28;20499;-73
2021/10/16 10:37:21;;;;;;;8.27;5.13;;;10.30;99.90;;;;;;5107807;28;20435;-74
2021/10/16 10:39:51;;;;;;;9.33;3.47;;;10.30;99.90;;;;;;5108906;28;20412;-73
2021/10/16 10:44:56;;;;;;;3.50;2.90;;;10.30;99.90;;;;;;5069427;28;20618;-76
2021/10/16 10:47:37;;;;;;;6.80;3.33;;;10.40;99.90;;;;;;5069152;28;20729;-75
2021/10/16 10:50:06;;;;;;;6.37;3.20;;;10.50;99.90;;;;;;5069245;28;20382;-75
2021/10/16 10:53:09;;;;;;;6.70;2.40;;;10.50;99.90;;;;;;5069243;28;20378;-76
2021/10/16 10:55:56;;;;;;;9.20;3.17;;;10.50;99.90;;;;;;5054926;28;20554;-75
2021/10/16 10:58:23;;;;;;;10.07;3.90;;;10.50;99.90;;;;;;5048145;28;20426;-75
2021/10/16 11:00:52;;;;;;;7.60;3.50;;;10.50;99.90;;;;;;5049217;28;20448;-76
2021/10/16 11:06:17;;;;;;;11.90;3.53;;;10.50;99.90;;;;;;5069792;28;20517;-78
2021/10/16 11:08:44;;;;;;;5.30;3.10;;;10.50;99.90;;;;;;5069819;28;20394;-77
2021/10/16 11:11:10;;;;;;;8.00;3.93;;;10.50;99.90;;;;;;5067926;28;20378;-77
2021/10/16 11:13:36;;;;;;;10.57;3.77;;;10.50;99.90;;;;;;5049643;28;20383;-77
2021/10/16 11:16:04;;;;;;;4.73;2.27;;;10.50;99.90;;;;;;5049977;28;20222;-77
2021/10/16 11:18:30;;;;;;;8.53;3.13;;;10.50;99.90;;;;;;5049826;28;20426;-77
2021/10/16 11:21:12;;;;;;;9.20;3.77;;;10.50;99.90;;;;;;5049767;28;20387;-77
2021/10/16 11:23:39;;;;;;;11.30;3.40;;;10.50;99.90;;;;;;5049656;28;20395;-77
2021/10/16 11:26:11;;;;;;;7.63;3.30;;;10.50;99.90;;;;;;5049589;28;20565;-77
2021/10/16 11:28:38;;;;;;;4.80;3.00;;;10.50;99.90;;;;;;5050305;28;20848;-77
2021/10/16 11:31:06;;;;;;;6.90;2.93;;;10.50;99.90;;;;;;5049659;28;20768;-77
2021/10/16 11:33:38;;;;;;;8.67;4.00;;;10.50;99.90;;;;;;5064878;28;20445;-77
2021/10/16 11:36:04;;;;;;;8.93;3.80;;;10.50;99.90;;;;;;5069080;28;20449;-77
2021/10/16 11:38:33;;;;;;;8.13;3.70;;;10.60;99.90;;;;;;5066527;28;21458;-77
2021/10/16 11:41:01;;;;;;;9.20;4.17;;;10.70;99.90;;;;;;5049347;28;20402;-77
2021/10/16 11:43:35;;;;;;;6.70;3.70;;;10.80;99.90;;;;;;5049332;28;20752;-78
2021/10/16 11:46:02;;;;;;;8.00;3.40;;;11.00;99.90;;;;;;5057958;28;20454;-77
2021/10/16 11:48:28;;;;;;;4.60;3.10;;;11.10;99.90;;;;;;5069207;28;20397;-77
2021/10/16 11:50:56;;;;;;;6.90;3.00;;;11.30;99.90;;;;;;5069070;28;20858;-77
2021/10/16 11:53:24;;;;;;;5.13;2.97;;;11.40;99.90;;;;;;5069313;28;20441;-77
2021/10/16 11:58:34;;;;;;;7.77;2.70;;;11.70;99.90;;;;;;5069249;28;20973;-75
2021/10/16 12:01:03;;;;;;;9.27;3.10;;;11.80;99.90;;;;;;5069488;28;20441;-75
2021/10/16 12:03:40;;;;;;;6.43;2.53;;;12.00;99.90;;;;;;5053985;28;20427;-75
2021/10/16 12:06:07;;;;;;;6.03;3.13;;;12.10;99.90;;;;;;5049334;28;20397;-75
2021/10/16 12:08:42;;;;;;;6.93;3.60;;;12.20;99.90;;;;;;5049673;28;20427;-75
2021/10/16 12:11:14;;;;;;;6.33;2.93;;;12.30;99.90;;;;;;5049320;28;20481;-75
2021/10/16 12:13:43;;;;;;;7.73;3.30;;;12.40;99.90;;;;;;5048985;28;20387;-75
2021/10/16 12:16:18;;;;;;;12.13;2.93;;;12.40;99.90;;;;;;5048894;28;20392;-75
2021/10/16 12:24:22;;;;;;;10.53;3.10;;;12.50;99.90;;;;;;5090232;28;20515;-77
2021/10/16 12:27:01;;;;;;;7.67;2.53;;;12.70;99.90;;;;;;5090012;28;20428;-77
2021/10/16 12:29:30;;;;;;;4.57;2.47;;;12.70;99.90;;;;;;5089956;28;20381;-77
2021/10/16 12:31:56;;;;;;;8.17;3.73;;;12.70;99.90;;;;;;5070134;28;20433;-78
2021/10/16 12:34:24;;;;;;;8.27;3.90;;;12.70;99.90;;;;;;5082964;28;20488;-78
2021/10/16 12:42:11;;;;;;;7.13;3.63;;;12.70;99.90;;;;;;5069167;28;20554;-75
2021/10/16 12:44:38;;;;;;;7.70;3.03;;;12.50;99.90;;;;;;5069174;28;20418;-75
2021/10/16 12:49:47;;;;;;;6.80;4.20;;;12.40;99.90;;;;;;5069551;28;20582;-75
2021/10/16 13:00:35;;;;;;;8.40;2.87;;;12.30;99.90;;;;;;5069441;28;20508;-74
2021/10/16 13:03:02;;;;;;;7.57;2.97;;;12.10;99.90;;;;;;5069907;28;20786;-75
2021/10/16 13:05:29;;;;;;;4.80;2.53;;;12.00;99.90;;;;;;5069308;28;20382;-75
2021/10/16 13:07:55;;;;;;;5.90;2.90;;;12.00;99.90;;;;;;5069086;28;20402;-75
2021/10/16 13:10:21;;;;;;;3.93;2.50;;;12.00;99.90;;;;;;5065713;28;20406;-75
2021/10/16 13:12:47;;;;;;;6.40;2.80;;;12.00;99.90;;;;;;5049336;28;20395;-74
2021/10/16 13:15:13;;;;;;;9.67;3.23;;;12.00;99.90;;;;;;5049258;28;20275;-75
2021/10/16 13:17:39;;;;;;;8.47;3.07;;;12.00;99.90;;;;;;5049403;28;20160;-75
2021/10/16 13:20:06;;;;;;;7.10;2.90;;;12.10;99.90;;;;;;5048881;28;20442;-75
2021/10/16 13:22:31;;;;;;;11.53;2.43;;;12.10;99.90;;;;;;5049067;28;20391;-75
2021/10/16 13:24:59;;;;;;;5.57;3.00;;;12.10;99.90;;;;;;5048807;28;20390;-75
2021/10/16 13:27:25;;;;;;;5.10;2.37;;;12.10;99.90;;;;;;5049453;28;20176;-75
2021/10/16 13:29:52;;;;;;;3.93;2.20;;;12.10;99.90;;;;;;5067219;28;20422;-75
2021/10/16 13:32:18;;;;;;;6.40;2.97;;;12.10;99.90;;;;;;5069109;28;20473;-75
2021/10/16 13:34:43;;;;;;;3.70;2.27;;;12.00;99.90;;;;;;5068360;28;20505;-75